Time;durP1;ratioP1;P1;durP2;ratioP2;P2;SDS_P1;SDS_P2;PMS_P1;PMS_P2;Temp;Humidity;BMP_temperature;BMP_pressure;BME280_temperature;BME280_humidity;BME280_pressure;Samples;Min_cycle;Max_cycle;Signal;HPM_P1;HPM_P2
2022/04/24 00:00:52;;;;;;;47.65;33.95;;;;;;;8.42;75.98535;93262.67;;;;
2022/04/24 00:01:52;;;;;;;47.65;33.95;;;;;;;8.42;75.98535;93262.67;;;;
2022/04/24 00:02:53;;;;;;;47.65;33.95;;;;;;;8.42;75.98535;93262.67;;;;
2022/04/24 00:03:53;;;;;;;47.65;33.95;;;;;;;8.42;75.98535;93262.67;;;;
2022/04/24 00:04:54;;;;;;;47.65;33.95;;;;;;;8.42;75.98535;93262.67;;;;
2022/04/24 00:05:55;;;;;;;47.65;33.95;;;;;;;8.42;75.98535;93262.67;;;;
2022/04/24 00:06:55;;;;;;;47.65;33.95;;;;;;;8.42;75.98535;93262.67;;;;
2022/04/24 00:07:56;;;;;;;47.65;33.95;;;;;;;8.42;75.98535;93262.67;;;;
2022/04/24 00:08:56;;;;;;;47.65;33.95;;;;;;;8.42;75.98535;93262.67;;;;
2022/04/24 00:09:57;;;;;;;47.65;33.95;;;;;;;8.42;75.98535;93262.67;;;;
2022/04/24 00:10:57;;;;;;;49.99999;34.89999;;;;;;;8.33;76.14063;93222.63;;;;
2022/04/24 00:11:58;;;;;;;49.99999;34.89999;;;;;;;8.33;76.14063;93222.63;;;;
2022/04/24 00:12:58;;;;;;;49.99999;34.89999;;;;;;;8.33;76.14063;93222.63;;;;
2022/04/24 00:13:59;;;;;;;49.99999;34.89999;;;;;;;8.33;76.14063;93222.63;;;;
2022/04/24 00:14:59;;;;;;;49.99999;34.89999;;;;;;;8.33;76.14063;93222.63;;;;
2022/04/24 00:16:00;;;;;;;49.99999;34.89999;;;;;;;8.33;76.14063;93222.63;;;;
2022/04/24 00:17:00;;;;;;;49.99999;34.89999;;;;;;;8.33;76.14063;93222.63;;;;
2022/04/24 00:18:01;;;;;;;49.99999;34.89999;;;;;;;8.33;76.14063;93222.63;;;;
2022/04/24 00:19:02;;;;;;;49.99999;34.89999;;;;;;;8.33;76.14063;93222.63;;;;
2022/04/24 00:20:02;;;;;;;49.99999;34.89999;;;;;;;8.33;76.14063;93222.63;;;;
2022/04/24 00:21:04;;;;;;;49.99999;34.89999;;;;;;;8.33;76.14063;93222.63;;;;
2022/04/24 00:22:06;;;;;;;50.45;34.7;;;;;;;8.24;76.72949;93219.41;;;;
2022/04/24 00:23:06;;;;;;;50.45;34.7;;;;;;;8.24;76.72949;93219.41;;;;
2022/04/24 00:24:08;;;;;;;50.45;34.7;;;;;;;8.24;76.72949;93219.41;;;;
2022/04/24 00:25:08;;;;;;;50.45;34.7;;;;;;;8.24;76.72949;93219.41;;;;
2022/04/24 00:26:09;;;;;;;50.45;34.7;;;;;;;8.24;76.72949;93219.41;;;;
2022/04/24 00:27:10;;;;;;;50.45;34.7;;;;;;;8.24;76.72949;93219.41;;;;
2022/04/24 00:28:10;;;;;;;50.45;34.7;;;;;;;8.24;76.72949;93219.41;;;;
2022/04/24 00:29:10;;;;;;;50.45;34.7;;;;;;;8.24;76.72949;93219.41;;;;
2022/04/24 00:30:11;;;;;;;50.45;34.7;;;;;;;8.24;76.72949;93219.41;;;;
2022/04/24 00:31:12;;;;;;;50.45;34.7;;;;;;;8.24;76.72949;93219.41;;;;
2022/04/24 00:32:12;;;;;;;50.45;34.7;;;;;;;8.24;76.72949;93219.41;;;;
2022/04/24 00:33:13;;;;;;;52.19999;36.6;;;;;;;8.24;77.15625;93217.13;;;;
2022/04/24 00:34:14;;;;;;;52.19999;36.6;;;;;;;8.24;77.15625;93217.13;;;;
2022/04/24 00:35:14;;;;;;;52.19999;36.6;;;;;;;8.24;77.15625;93217.13;;;;
2022/04/24 00:36:15;;;;;;;52.19999;36.6;;;;;;;8.24;77.15625;93217.13;;;;
2022/04/24 00:37:15;;;;;;;52.19999;36.6;;;;;;;8.24;77.15625;93217.13;;;;
2022/04/24 00:38:15;;;;;;;52.19999;36.6;;;;;;;8.24;77.15625;93217.13;;;;
2022/04/24 00:39:16;;;;;;;52.19999;36.6;;;;;;;8.24;77.15625;93217.13;;;;
2022/04/24 00:40:18;;;;;;;52.19999;36.6;;;;;;;8.24;77.15625;93217.13;;;;
2022/04/24 00:41:19;;;;;;;52.19999;36.6;;;;;;;8.24;77.15625;93217.13;;;;
2022/04/24 00:42:19;;;;;;;52.19999;36.6;;;;;;;8.24;77.15625;93217.13;;;;
2022/04/24 00:43:20;;;;;;;52.19999;36.6;;;;;;;8.24;77.15625;93217.13;;;;
2022/04/24 00:44:20;;;;;;;52.19999;36.6;;;;;;;8.24;77.15625;93217.13;;;;
2022/04/24 00:45:21;;;;;;;52.19999;36.6;;;;;;;8.24;77.15625;93217.13;;;;
2022/04/24 00:46:21;;;;;;;52.19999;36.6;;;;;;;8.24;77.15625;93217.13;;;;
2022/04/24 00:47:41;;;;;;;52.19999;36.6;;;;;;;8.24;77.15625;93217.13;;;;
2022/04/24 00:48:42;;;;;;;52.19999;36.6;;;;;;;8.24;77.15625;93217.13;;;;
2022/04/24 00:49:43;;;;;;;52.19999;36.6;;;;;;;8.24;77.15625;93217.13;;;;
2022/04/24 00:50:44;;;;;;;52.19999;36.6;;;;;;;8.24;77.15625;93217.13;;;;
2022/04/24 00:51:45;;;;;;;52.19999;36.6;;;;;;;8.24;77.15625;93217.13;;;;
2022/04/24 00:52:46;;;;;;;52.19999;36.6;;;;;;;8.24;77.15625;93217.13;;;;
2022/04/24 00:53:46;;;;;;;52.19999;36.6;;;;;;;8.24;77.15625;93217.13;;;;
2022/04/24 00:54:47;;;;;;;53.5;36.65;;;;;;;8.17;77.51465;93191.97;;;;
2022/04/24 00:55:47;;;;;;;53.5;36.65;;;;;;;8.17;77.51465;93191.97;;;;
2022/04/24 00:56:49;;;;;;;53.5;36.65;;;;;;;8.17;77.51465;93191.97;;;;
2022/04/24 00:57:49;;;;;;;53.5;36.65;;;;;;;8.17;77.51465;93191.97;;;;
2022/04/24 00:58:50;;;;;;;53.5;36.65;;;;;;;8.17;77.51465;93191.97;;;;
2022/04/24 00:59:51;;;;;;;53.5;36.65;;;;;;;8.17;77.51465;93191.97;;;;
2022/04/24 01:00:52;;;;;;;53.5;36.65;;;;;;;8.17;77.51465;93191.97;;;;
2022/04/24 01:01:52;;;;;;;53.5;36.65;;;;;;;8.17;77.51465;93191.97;;;;
2022/04/24 01:02:53;;;;;;;53.5;36.65;;;;;;;8.17;77.51465;93191.97;;;;
2022/04/24 01:03:53;;;;;;;53.5;36.65;;;;;;;8.17;77.51465;93191.97;;;;
2022/04/24 01:04:57;;;;;;;54.4;36.3;;;;;;;8.26;77.66992;93153.55;;;;
2022/04/24 01:05:58;;;;;;;54.4;36.3;;;;;;;8.26;77.66992;93153.55;;;;
2022/04/24 01:06:59;;;;;;;54.4;36.3;;;;;;;8.26;77.66992;93153.55;;;;
2022/04/24 01:08:00;;;;;;;54.4;36.3;;;;;;;8.26;77.66992;93153.55;;;;
2022/04/24 01:09:01;;;;;;;54.4;36.3;;;;;;;8.26;77.66992;93153.55;;;;
2022/04/24 01:10:10;;;;;;;54.4;36.3;;;;;;;8.26;77.66992;93153.55;;;;
2022/04/24 01:11:10;;;;;;;54.4;36.3;;;;;;;8.26;77.66992;93153.55;;;;
2022/04/24 01:12:11;;;;;;;54.4;36.3;;;;;;;8.26;77.66992;93153.55;;;;
2022/04/24 01:13:11;;;;;;;54.4;36.3;;;;;;;8.26;77.66992;93153.55;;;;
2022/04/24 01:14:12;;;;;;;54.4;36.3;;;;;;;8.26;77.66992;93153.55;;;;
2022/04/24 01:15:14;;;;;;;53.70001;36.30001;;;;;;;8.37;77.90234;93161.86;;;;
2022/04/24 01:16:14;;;;;;;53.70001;36.30001;;;;;;;8.37;77.90234;93161.86;;;;
2022/04/24 01:17:15;;;;;;;53.70001;36.30001;;;;;;;8.37;77.90234;93161.86;;;;
2022/04/24 01:18:15;;;;;;;53.70001;36.30001;;;;;;;8.37;77.90234;93161.86;;;;
2022/04/24 01:19:17;;;;;;;53.70001;36.30001;;;;;;;8.37;77.90234;93161.86;;;;
2022/04/24 01:20:18;;;;;;;53.70001;36.30001;;;;;;;8.37;77.90234;93161.86;;;;
2022/04/24 01:21:20;;;;;;;53.70001;36.30001;;;;;;;8.37;77.90234;93161.86;;;;
2022/04/24 01:22:20;;;;;;;53.70001;36.30001;;;;;;;8.37;77.90234;93161.86;;;;
2022/04/24 01:23:21;;;;;;;53.70001;36.30001;;;;;;;8.37;77.90234;93161.86;;;;
2022/04/24 01:24:21;;;;;;;53.70001;36.30001;;;;;;;8.37;77.90234;93161.86;;;;
2022/04/24 01:25:23;;;;;;;53.70001;36.30001;;;;;;;8.37;77.90234;93161.86;;;;
2022/04/24 01:26:24;;;;;;;53.7;37.2;;;;;;;8.51;78.37305;93154.41;;;;
2022/04/24 01:27:24;;;;;;;53.7;37.2;;;;;;;8.51;78.37305;93154.41;;;;
2022/04/24 01:28:25;;;;;;;53.7;37.2;;;;;;;8.51;78.37305;93154.41;;;;
2022/04/24 01:29:25;;;;;;;53.7;37.2;;;;;;;8.51;78.37305;93154.41;;;;
2022/04/24 01:30:26;;;;;;;53.7;37.2;;;;;;;8.51;78.37305;93154.41;;;;
2022/04/24 01:31:26;;;;;;;53.7;37.2;;;;;;;8.51;78.37305;93154.41;;;;
2022/04/24 01:32:27;;;;;;;53.7;37.2;;;;;;;8.51;78.37305;93154.41;;;;
2022/04/24 01:33:28;;;;;;;53.7;37.2;;;;;;;8.51;78.37305;93154.41;;;;
2022/04/24 01:34:28;;;;;;;53.7;37.2;;;;;;;8.51;78.37305;93154.41;;;;
2022/04/24 01:35:29;;;;;;;53.7;37.2;;;;;;;8.51;78.37305;93154.41;;;;
2022/04/24 01:36:30;;;;;;;53.7;37.2;;;;;;;8.51;78.37305;93154.41;;;;
2022/04/24 01:37:30;;;;;;;51.75;35.64999;;;;;;;8.67;78.44629;93162.67;;;;
2022/04/24 01:38:31;;;;;;;51.75;35.64999;;;;;;;8.67;78.44629;93162.67;;;;
2022/04/24 01:39:31;;;;;;;51.75;35.64999;;;;;;;8.67;78.44629;93162.67;;;;
2022/04/24 01:40:32;;;;;;;51.75;35.64999;;;;;;;8.67;78.44629;93162.67;;;;
2022/04/24 01:41:32;;;;;;;51.75;35.64999;;;;;;;8.67;78.44629;93162.67;;;;
2022/04/24 01:42:33;;;;;;;51.75;35.64999;;;;;;;8.67;78.44629;93162.67;;;;
2022/04/24 01:43:33;;;;;;;51.75;35.64999;;;;;;;8.67;78.44629;93162.67;;;;
2022/04/24 01:44:34;;;;;;;51.75;35.64999;;;;;;;8.67;78.44629;93162.67;;;;
2022/04/24 01:45:34;;;;;;;51.75;35.64999;;;;;;;8.67;78.44629;93162.67;;;;
2022/04/24 01:46:35;;;;;;;51.75;35.64999;;;;;;;8.67;78.44629;93162.67;;;;
2022/04/24 01:47:35;;;;;;;48.75;33.6;;;;;;;8.72;78.43164;93143.97;;;;
2022/04/24 01:48:37;;;;;;;48.75;33.6;;;;;;;8.72;78.43164;93143.97;;;;
2022/04/24 01:49:37;;;;;;;48.75;33.6;;;;;;;8.72;78.43164;93143.97;;;;
2022/04/24 01:50:37;;;;;;;48.75;33.6;;;;;;;8.72;78.43164;93143.97;;;;
2022/04/24 01:51:38;;;;;;;48.75;33.6;;;;;;;8.72;78.43164;93143.97;;;;
2022/04/24 01:52:39;;;;;;;48.75;33.6;;;;;;;8.72;78.43164;93143.97;;;;
2022/04/24 01:53:39;;;;;;;48.75;33.6;;;;;;;8.72;78.43164;93143.97;;;;
2022/04/24 01:54:40;;;;;;;48.75;33.6;;;;;;;8.72;78.43164;93143.97;;;;
2022/04/24 01:55:40;;;;;;;48.75;33.6;;;;;;;8.72;78.43164;93143.97;;;;
2022/04/24 01:56:40;;;;;;;48.75;33.6;;;;;;;8.72;78.43164;93143.97;;;;
2022/04/24 01:57:41;;;;;;;48.75;33.6;;;;;;;8.72;78.43164;93143.97;;;;
2022/04/24 01:58:42;;;;;;;48.75;33.6;;;;;;;8.72;78.43164;93143.97;;;;
2022/04/24 01:59:42;;;;;;;48.75;33.6;;;;;;;8.72;78.43164;93143.97;;;;
2022/04/24 02:00:42;;;;;;;48.75;33.6;;;;;;;8.72;78.43164;93143.97;;;;
2022/04/24 02:01:43;;;;;;;48.75;33.6;;;;;;;8.72;78.43164;93143.97;;;;
2022/04/24 02:02:43;;;;;;;48.75;33.6;;;;;;;8.72;78.43164;93143.97;;;;
2022/04/24 02:03:44;;;;;;;48.75;33.6;;;;;;;8.72;78.43164;93143.97;;;;
2022/04/24 02:04:44;;;;;;;48.75;33.6;;;;;;;8.72;78.43164;93143.97;;;;
2022/04/24 02:05:45;;;;;;;48.75;33.6;;;;;;;8.72;78.43164;93143.97;;;;
2022/04/24 02:06:46;;;;;;;48.75;33.6;;;;;;;8.72;78.43164;93143.97;;;;
2022/04/24 02:07:46;;;;;;;48.75;33.6;;;;;;;8.72;78.43164;93143.97;;;;
2022/04/24 02:08:47;;;;;;;48.75;33.6;;;;;;;8.72;78.43164;93143.97;;;;
2022/04/24 02:09:47;;;;;;;48.75;33.6;;;;;;;8.72;78.43164;93143.97;;;;
2022/04/24 02:10:48;;;;;;;48.75;33.6;;;;;;;8.72;78.43164;93143.97;;;;
2022/04/24 02:11:48;;;;;;;48.75;33.6;;;;;;;8.72;78.43164;93143.97;;;;
2022/04/24 02:12:49;;;;;;;48.75;33.6;;;;;;;8.72;78.43164;93143.97;;;;
2022/04/24 02:13:49;;;;;;;48.75;33.6;;;;;;;8.72;78.43164;93143.97;;;;
2022/04/24 02:14:50;;;;;;;48.75;33.6;;;;;;;8.72;78.43164;93143.97;;;;
2022/04/24 02:15:50;;;;;;;48.75;33.6;;;;;;;8.72;78.43164;93143.97;;;;
2022/04/24 02:16:51;;;;;;;48.75;33.6;;;;;;;8.72;78.43164;93143.97;;;;
2022/04/24 02:17:52;;;;;;;48.75;33.6;;;;;;;8.72;78.43164;93143.97;;;;
2022/04/24 02:18:52;;;;;;;48.75;33.6;;;;;;;8.72;78.43164;93143.97;;;;
2022/04/24 02:19:53;;;;;;;49.1;35.2;;;;;;;8.62;79;93126.39;;;;
2022/04/24 02:20:53;;;;;;;49.1;35.2;;;;;;;8.62;79;93126.39;;;;
2022/04/24 02:21:54;;;;;;;49.1;35.2;;;;;;;8.62;79;93126.39;;;;
2022/04/24 02:22:55;;;;;;;49.1;35.2;;;;;;;8.62;79;93126.39;;;;
2022/04/24 02:23:56;;;;;;;49.1;35.2;;;;;;;8.62;79;93126.39;;;;
2022/04/24 02:24:57;;;;;;;49.1;35.2;;;;;;;8.62;79;93126.39;;;;
2022/04/24 02:25:58;;;;;;;49.1;35.2;;;;;;;8.62;79;93126.39;;;;
2022/04/24 02:26:58;;;;;;;49.1;35.2;;;;;;;8.62;79;93126.39;;;;
2022/04/24 02:27:59;;;;;;;49.1;35.2;;;;;;;8.62;79;93126.39;;;;
2022/04/24 02:28:59;;;;;;;49.1;35.2;;;;;;;8.62;79;93126.39;;;;
2022/04/24 02:29:59;;;;;;;51.75;35.14999;;;;;;;8.46;79.17285;93138.83;;;;
2022/04/24 02:31:00;;;;;;;51.75;35.14999;;;;;;;8.46;79.17285;93138.83;;;;
2022/04/24 02:32:01;;;;;;;51.75;35.14999;;;;;;;8.46;79.17285;93138.83;;;;
2022/04/24 02:33:01;;;;;;;51.75;35.14999;;;;;;;8.46;79.17285;93138.83;;;;
2022/04/24 02:34:02;;;;;;;51.75;35.14999;;;;;;;8.46;79.17285;93138.83;;;;
2022/04/24 02:35:02;;;;;;;51.75;35.14999;;;;;;;8.46;79.17285;93138.83;;;;
2022/04/24 02:36:04;;;;;;;51.75;35.14999;;;;;;;8.46;79.17285;93138.83;;;;
2022/04/24 02:37:04;;;;;;;51.75;35.14999;;;;;;;8.46;79.17285;93138.83;;;;
2022/04/24 02:38:05;;;;;;;51.75;35.14999;;;;;;;8.46;79.17285;93138.83;;;;
2022/04/24 02:39:05;;;;;;;51.75;35.14999;;;;;;;8.46;79.17285;93138.83;;;;
2022/04/24 02:40:09;;;;;;;51.75;35.14999;;;;;;;8.46;79.17285;93138.83;;;;
2022/04/24 02:41:11;;;;;;;49.35001;35.64999;;;;;;;8.32;79.5957;93154.75;;;;
2022/04/24 02:42:12;;;;;;;49.35001;35.64999;;;;;;;8.32;79.5957;93154.75;;;;
2022/04/24 02:43:12;;;;;;;49.35001;35.64999;;;;;;;8.32;79.5957;93154.75;;;;
2022/04/24 02:44:13;;;;;;;49.35001;35.64999;;;;;;;8.32;79.5957;93154.75;;;;
2022/04/24 02:45:13;;;;;;;49.35001;35.64999;;;;;;;8.32;79.5957;93154.75;;;;
2022/04/24 02:46:14;;;;;;;49.35001;35.64999;;;;;;;8.32;79.5957;93154.75;;;;
2022/04/24 02:47:14;;;;;;;49.35001;35.64999;;;;;;;8.32;79.5957;93154.75;;;;
2022/04/24 02:48:15;;;;;;;49.35001;35.64999;;;;;;;8.32;79.5957;93154.75;;;;
2022/04/24 02:49:15;;;;;;;49.35001;35.64999;;;;;;;8.32;79.5957;93154.75;;;;
2022/04/24 02:50:16;;;;;;;49.35001;35.64999;;;;;;;8.32;79.5957;93154.75;;;;
2022/04/24 02:51:17;;;;;;;55.7;36.25;;;;;;;8.19;79.90918;93144.13;;;;
2022/04/24 02:52:18;;;;;;;55.7;36.25;;;;;;;8.19;79.90918;93144.13;;;;
2022/04/24 02:53:18;;;;;;;55.7;36.25;;;;;;;8.19;79.90918;93144.13;;;;
2022/04/24 02:54:18;;;;;;;55.7;36.25;;;;;;;8.19;79.90918;93144.13;;;;
2022/04/24 02:55:19;;;;;;;55.7;36.25;;;;;;;8.19;79.90918;93144.13;;;;
2022/04/24 02:56:20;;;;;;;55.7;36.25;;;;;;;8.19;79.90918;93144.13;;;;
2022/04/24 02:57:21;;;;;;;55.7;36.25;;;;;;;8.19;79.90918;93144.13;;;;
2022/04/24 02:58:22;;;;;;;55.7;36.25;;;;;;;8.19;79.90918;93144.13;;;;
2022/04/24 02:59:25;;;;;;;55.7;36.25;;;;;;;8.19;79.90918;93144.13;;;;
2022/04/24 03:00:39;;;;;;;55.7;36.25;;;;;;;8.19;79.90918;93144.13;;;;
2022/04/24 03:01:39;;;;;;;55.7;36.25;;;;;;;8.19;79.90918;93144.13;;;;
2022/04/24 03:02:41;;;;;;;54.85;36.75;;;;;;;8.06;80.1416;93155.85;;;;
2022/04/24 03:03:42;;;;;;;54.85;36.75;;;;;;;8.06;80.1416;93155.85;;;;
2022/04/24 03:04:43;;;;;;;54.85;36.75;;;;;;;8.06;80.1416;93155.85;;;;
2022/04/24 03:05:44;;;;;;;54.85;36.75;;;;;;;8.06;80.1416;93155.85;;;;
2022/04/24 03:06:44;;;;;;;54.85;36.75;;;;;;;8.06;80.1416;93155.85;;;;
2022/04/24 03:07:45;;;;;;;54.85;36.75;;;;;;;8.06;80.1416;93155.85;;;;
2022/04/24 03:08:47;;;;;;;54.85;36.75;;;;;;;8.06;80.1416;93155.85;;;;
2022/04/24 03:09:48;;;;;;;54.85;36.75;;;;;;;8.06;80.1416;93155.85;;;;
2022/04/24 03:10:48;;;;;;;54.85;36.75;;;;;;;8.06;80.1416;93155.85;;;;
2022/04/24 03:11:49;;;;;;;54.85;36.75;;;;;;;8.06;80.1416;93155.85;;;;
2022/04/24 03:12:49;;;;;;;55.9;37.85;;;;;;;8.06;80.29883;93151.45;;;;
2022/04/24 03:13:50;;;;;;;55.9;37.85;;;;;;;8.06;80.29883;93151.45;;;;
2022/04/24 03:14:50;;;;;;;55.9;37.85;;;;;;;8.06;80.29883;93151.45;;;;
2022/04/24 03:15:51;;;;;;;55.9;37.85;;;;;;;8.06;80.29883;93151.45;;;;
2022/04/24 03:16:52;;;;;;;55.9;37.85;;;;;;;8.06;80.29883;93151.45;;;;
2022/04/24 03:17:54;;;;;;;55.9;37.85;;;;;;;8.06;80.29883;93151.45;;;;
2022/04/24 03:18:55;;;;;;;55.9;37.85;;;;;;;8.06;80.29883;93151.45;;;;
2022/04/24 03:19:55;;;;;;;55.9;37.85;;;;;;;8.06;80.29883;93151.45;;;;
2022/04/24 03:20:56;;;;;;;55.9;37.85;;;;;;;8.06;80.29883;93151.45;;;;
2022/04/24 03:21:56;;;;;;;55.9;37.85;;;;;;;8.06;80.29883;93151.45;;;;
2022/04/24 03:22:57;;;;;;;55.9;37.85;;;;;;;8.06;80.29883;93151.45;;;;
2022/04/24 03:23:57;;;;;;;56.8;37.55;;;;;;;8.04;80.43359;93252.62;;;;
2022/04/24 03:24:58;;;;;;;56.8;37.55;;;;;;;8.04;80.43359;93252.62;;;;
2022/04/24 03:25:58;;;;;;;56.8;37.55;;;;;;;8.04;80.43359;93252.62;;;;
2022/04/24 03:26:59;;;;;;;56.8;37.55;;;;;;;8.04;80.43359;93252.62;;;;
2022/04/24 03:27:59;;;;;;;56.8;37.55;;;;;;;8.04;80.43359;93252.62;;;;
2022/04/24 03:29:00;;;;;;;56.8;37.55;;;;;;;8.04;80.43359;93252.62;;;;
2022/04/24 03:30:00;;;;;;;56.8;37.55;;;;;;;8.04;80.43359;93252.62;;;;
2022/04/24 03:31:02;;;;;;;56.8;37.55;;;;;;;8.04;80.43359;93252.62;;;;
2022/04/24 03:32:03;;;;;;;56.8;37.55;;;;;;;8.04;80.43359;93252.62;;;;
2022/04/24 03:33:04;;;;;;;56.8;37.55;;;;;;;8.04;80.43359;93252.62;;;;
2022/04/24 03:34:05;;;;;;;0;0;;;;;;;0;0;0;;;;
2022/04/24 03:35:06;;;;;;;0;0;;;;;;;0;0;0;;;;
2022/04/24 03:36:09;;;;;;;0;0;;;;;;;0;0;0;;;;
2022/04/24 03:37:09;;;;;;;0;0;;;;;;;0;0;0;;;;
2022/04/24 03:38:10;;;;;;;0;0;;;;;;;0;0;0;;;;
2022/04/24 03:39:10;;;;;;;0;0;;;;;;;0;0;0;;;;
2022/04/24 03:40:11;;;;;;;0;0;;;;;;;0;0;0;;;;
2022/04/24 03:41:11;;;;;;;0;0;;;;;;;0;0;0;;;;
2022/04/24 03:42:12;;;;;;;0;0;;;;;;;0;0;0;;;;
2022/04/24 03:43:12;;;;;;;0;0;;;;;;;0;0;0;;;;
2022/04/24 03:44:13;;;;;;;55.95;37.2;;;;;;;8.27;80.25391;93272.66;;;;
2022/04/24 03:45:13;;;;;;;55.95;37.2;;;;;;;8.27;80.25391;93272.66;;;;
2022/04/24 03:46:14;;;;;;;55.95;37.2;;;;;;;8.27;80.25391;93272.66;;;;
2022/04/24 03:47:14;;;;;;;55.95;37.2;;;;;;;8.27;80.25391;93272.66;;;;
2022/04/24 03:48:15;;;;;;;55.95;37.2;;;;;;;8.27;80.25391;93272.66;;;;
2022/04/24 03:49:16;;;;;;;55.95;37.2;;;;;;;8.27;80.25391;93272.66;;;;
2022/04/24 03:50:16;;;;;;;55.95;37.2;;;;;;;8.27;80.25391;93272.66;;;;
2022/04/24 03:51:17;;;;;;;55.95;37.2;;;;;;;8.27;80.25391;93272.66;;;;
2022/04/24 03:52:17;;;;;;;55.95;37.2;;;;;;;8.27;80.25391;93272.66;;;;
2022/04/24 03:53:18;;;;;;;55.95;37.2;;;;;;;8.27;80.25391;93272.66;;;;
2022/04/24 03:54:18;;;;;;;0;0;;;;;;;0;0;0;;;;
2022/04/24 03:55:19;;;;;;;0;0;;;;;;;0;0;0;;;;
2022/04/24 03:56:19;;;;;;;0;0;;;;;;;0;0;0;;;;
2022/04/24 03:57:20;;;;;;;0;0;;;;;;;0;0;0;;;;
2022/04/24 03:58:20;;;;;;;0;0;;;;;;;0;0;0;;;;
2022/04/24 03:59:21;;;;;;;0;0;;;;;;;0;0;0;;;;
2022/04/24 04:00:21;;;;;;;0;0;;;;;;;0;0;0;;;;
2022/04/24 04:01:22;;;;;;;0;0;;;;;;;0;0;0;;;;
2022/04/24 04:02:22;;;;;;;0;0;;;;;;;0;0;0;;;;
2022/04/24 04:03:23;;;;;;;0;0;;;;;;;0;0;0;;;;
2022/04/24 04:04:23;;;;;;;0;0;;;;;;;0;0;0;;;;
2022/04/24 04:05:24;;;;;;;0;0;;;;;;;0;0;0;;;;
2022/04/24 04:06:25;;;;;;;0;0;;;;;;;0;0;0;;;;
2022/04/24 04:07:26;;;;;;;0;0;;;;;;;0;0;0;;;;
2022/04/24 04:08:26;;;;;;;0;0;;;;;;;0;0;0;;;;
2022/04/24 04:09:27;;;;;;;0;0;;;;;;;0;0;0;;;;
2022/04/24 04:10:27;;;;;;;0;0;;;;;;;0;0;0;;;;
2022/04/24 04:11:28;;;;;;;0;0;;;;;;;0;0;0;;;;
2022/04/24 04:12:29;;;;;;;0;0;;;;;;;0;0;0;;;;
2022/04/24 04:13:29;;;;;;;0;0;;;;;;;0;0;0;;;;
2022/04/24 04:14:30;;;;;;;0;0;;;;;;;0;0;0;;;;
2022/04/24 04:15:32;;;;;;;0;0;;;;;;;0;0;0;;;;
2022/04/24 04:16:32;;;;;;;0;0;;;;;;;0;0;0;;;;
2022/04/24 04:17:33;;;;;;;0;0;;;;;;;0;0;0;;;;
2022/04/24 04:18:34;;;;;;;0;0;;;;;;;0;0;0;;;;
2022/04/24 04:19:34;;;;;;;0;0;;;;;;;0;0;0;;;;
2022/04/24 04:20:34;;;;;;;0;0;;;;;;;0;0;0;;;;
2022/04/24 04:21:35;;;;;;;0;0;;;;;;;0;0;0;;;;
2022/04/24 04:22:35;;;;;;;0;0;;;;;;;0;0;0;;;;
2022/04/24 04:23:44;;;;;;;0;0;;;;;;;0;0;0;;;;
2022/04/24 04:24:44;;;;;;;0;0;;;;;;;0;0;0;;;;
2022/04/24 04:25:45;;;;;;;0;0;;;;;;;0;0;0;;;;
2022/04/24 04:26:45;;;;;;;0;0;;;;;;;0;0;0;;;;
2022/04/24 04:27:46;;;;;;;0;0;;;;;;;0;0;0;;;;
2022/04/24 04:28:47;;;;;;;0;0;;;;;;;0;0;0;;;;
2022/04/24 04:29:48;;;;;;;0;0;;;;;;;0;0;0;;;;
2022/04/24 04:30:48;;;;;;;0;0;;;;;;;0;0;0;;;;
2022/04/24 04:31:49;;;;;;;0;0;;;;;;;0;0;0;;;;
2022/04/24 04:32:50;;;;;;;0;0;;;;;;;0;0;0;;;;
2022/04/24 04:33:51;;;;;;;0;0;;;;;;;0;0;0;;;;
2022/04/24 04:34:51;;;;;;;0;0;;;;;;;0;0;0;;;;
2022/04/24 04:35:51;;;;;;;0;0;;;;;;;0;0;0;;;;
2022/04/24 04:36:52;;;;;;;0;0;;;;;;;0;0;0;;;;
2022/04/24 04:37:52;;;;;;;0;0;;;;;;;0;0;0;;;;
2022/04/24 04:38:53;;;;;;;0;0;;;;;;;0;0;0;;;;
2022/04/24 04:39:53;;;;;;;0;0;;;;;;;0;0;0;;;;
2022/04/24 04:40:54;;;;;;;0;0;;;;;;;0;0;0;;;;
2022/04/24 04:41:54;;;;;;;0;0;;;;;;;0;0;0;;;;
2022/04/24 04:42:55;;;;;;;0;0;;;;;;;0;0;0;;;;
2022/04/24 04:43:55;;;;;;;0;0;;;;;;;0;0;0;;;;
2022/04/24 04:44:58;;;;;;;0;0;;;;;;;0;0;0;;;;
2022/04/24 04:45:58;;;;;;;0;0;;;;;;;0;0;0;;;;
2022/04/24 04:46:59;;;;;;;0;0;;;;;;;0;0;0;;;;
2022/04/24 04:47:59;;;;;;;0;0;;;;;;;0;0;0;;;;
2022/04/24 04:48:59;;;;;;;0;0;;;;;;;0;0;0;;;;
2022/04/24 04:50:02;;;;;;;0;0;;;;;;;0;0;0;;;;
2022/04/24 04:51:03;;;;;;;0;0;;;;;;;0;0;0;;;;
2022/04/24 04:52:03;;;;;;;0;0;;;;;;;0;0;0;;;;
2022/04/24 04:53:04;;;;;;;0;0;;;;;;;0;0;0;;;;
2022/04/24 04:54:05;;;;;;;0;0;;;;;;;0;0;0;;;;
2022/04/24 04:55:05;;;;;;;0;0;;;;;;;0;0;0;;;;
2022/04/24 04:56:06;;;;;;;0;0;;;;;;;0;0;0;;;;
2022/04/24 04:57:07;;;;;;;0;0;;;;;;;0;0;0;;;;
2022/04/24 04:58:07;;;;;;;0;0;;;;;;;0;0;0;;;;
2022/04/24 04:59:08;;;;;;;0;0;;;;;;;0;0;0;;;;
2022/04/24 05:00:08;;;;;;;0;0;;;;;;;0;0;0;;;;
2022/04/24 05:01:10;;;;;;;0;0;;;;;;;0;0;0;;;;
2022/04/24 05:02:10;;;;;;;0;0;;;;;;;0;0;0;;;;
2022/04/24 05:03:11;;;;;;;0;0;;;;;;;0;0;0;;;;
2022/04/24 05:04:11;;;;;;;0;0;;;;;;;0;0;0;;;;
2022/04/24 05:05:12;;;;;;;0;0;;;;;;;0;0;0;;;;
2022/04/24 05:06:12;;;;;;;0;0;;;;;;;0;0;0;;;;
2022/04/24 05:07:13;;;;;;;0;0;;;;;;;0;0;0;;;;
2022/04/24 05:08:13;;;;;;;0;0;;;;;;;0;0;0;;;;
2022/04/24 05:09:14;;;;;;;0;0;;;;;;;0;0;0;;;;
2022/04/24 05:10:14;;;;;;;0;0;;;;;;;0;0;0;;;;
2022/04/24 05:11:15;;;;;;;0;0;;;;;;;0;0;0;;;;
2022/04/24 05:12:15;;;;;;;0;0;;;;;;;0;0;0;;;;
2022/04/24 05:13:16;;;;;;;0;0;;;;;;;0;0;0;;;;
2022/04/24 05:14:16;;;;;;;0;0;;;;;;;0;0;0;;;;
2022/04/24 05:15:19;;;;;;;0;0;;;;;;;0;0;0;;;;
2022/04/24 05:16:19;;;;;;;36.05;26.3;;;;;;;8.52;77.92969;93388.67;;;;
2022/04/24 05:17:20;;;;;;;36.05;26.3;;;;;;;8.52;77.92969;93388.67;;;;
2022/04/24 05:18:21;;;;;;;36.05;26.3;;;;;;;8.52;77.92969;93388.67;;;;
2022/04/24 05:19:21;;;;;;;36.05;26.3;;;;;;;8.52;77.92969;93388.67;;;;
2022/04/24 05:20:21;;;;;;;36.05;26.3;;;;;;;8.52;77.92969;93388.67;;;;
2022/04/24 05:21:22;;;;;;;36.05;26.3;;;;;;;8.52;77.92969;93388.67;;;;
2022/04/24 05:22:22;;;;;;;36.05;26.3;;;;;;;8.52;77.92969;93388.67;;;;
2022/04/24 05:23:23;;;;;;;36.05;26.3;;;;;;;8.52;77.92969;93388.67;;;;
2022/04/24 05:24:24;;;;;;;36.05;26.3;;;;;;;8.52;77.92969;93388.67;;;;
2022/04/24 05:25:24;;;;;;;36.05;26.3;;;;;;;8.52;77.92969;93388.67;;;;
2022/04/24 05:26:25;;;;;;;36.05;26.3;;;;;;;8.52;77.92969;93388.67;;;;
2022/04/24 05:27:26;;;;;;;35.85;26.5;;;;;;;9.03;78.21289;93401.92;;;;
2022/04/24 05:28:27;;;;;;;35.85;26.5;;;;;;;9.03;78.21289;93401.92;;;;
2022/04/24 05:29:27;;;;;;;35.85;26.5;;;;;;;9.03;78.21289;93401.92;;;;
2022/04/24 05:30:28;;;;;;;35.85;26.5;;;;;;;9.03;78.21289;93401.92;;;;
2022/04/24 05:31:30;;;;;;;35.85;26.5;;;;;;;9.03;78.21289;93401.92;;;;
2022/04/24 05:32:31;;;;;;;35.85;26.5;;;;;;;9.03;78.21289;93401.92;;;;
2022/04/24 05:33:38;;;;;;;35.85;26.5;;;;;;;9.03;78.21289;93401.92;;;;
2022/04/24 05:34:39;;;;;;;35.85;26.5;;;;;;;9.03;78.21289;93401.92;;;;
2022/04/24 05:35:39;;;;;;;35.85;26.5;;;;;;;9.03;78.21289;93401.92;;;;
2022/04/24 05:36:40;;;;;;;35.85;26.5;;;;;;;9.03;78.21289;93401.92;;;;
2022/04/24 05:37:40;;;;;;;30.85;23.04999;;;;;;;9.52;77.86133;93409.74;;;;
2022/04/24 05:38:41;;;;;;;30.85;23.04999;;;;;;;9.52;77.86133;93409.74;;;;
2022/04/24 05:39:41;;;;;;;30.85;23.04999;;;;;;;9.52;77.86133;93409.74;;;;
2022/04/24 05:40:42;;;;;;;30.85;23.04999;;;;;;;9.52;77.86133;93409.74;;;;
2022/04/24 05:41:42;;;;;;;30.85;23.04999;;;;;;;9.52;77.86133;93409.74;;;;
2022/04/24 05:42:43;;;;;;;30.85;23.04999;;;;;;;9.52;77.86133;93409.74;;;;
2022/04/24 05:43:44;;;;;;;30.85;23.04999;;;;;;;9.52;77.86133;93409.74;;;;
2022/04/24 05:44:45;;;;;;;30.85;23.04999;;;;;;;9.52;77.86133;93409.74;;;;
2022/04/24 05:45:46;;;;;;;30.85;23.04999;;;;;;;9.52;77.86133;93409.74;;;;
2022/04/24 05:46:47;;;;;;;30.85;23.04999;;;;;;;9.52;77.86133;93409.74;;;;
2022/04/24 05:47:47;;;;;;;30.85;23.04999;;;;;;;9.52;77.86133;93409.74;;;;
2022/04/24 05:48:48;;;;;;;27;20.85;;;;;;;10.01;77.58789;93445.11;;;;
2022/04/24 05:49:49;;;;;;;27;20.85;;;;;;;10.01;77.58789;93445.11;;;;
2022/04/24 05:50:49;;;;;;;27;20.85;;;;;;;10.01;77.58789;93445.11;;;;
2022/04/24 05:51:50;;;;;;;27;20.85;;;;;;;10.01;77.58789;93445.11;;;;
2022/04/24 05:52:50;;;;;;;27;20.85;;;;;;;10.01;77.58789;93445.11;;;;
2022/04/24 05:53:53;;;;;;;27;20.85;;;;;;;10.01;77.58789;93445.11;;;;
2022/04/24 05:54:54;;;;;;;27;20.85;;;;;;;10.01;77.58789;93445.11;;;;
2022/04/24 05:55:54;;;;;;;27;20.85;;;;;;;10.01;77.58789;93445.11;;;;
2022/04/24 05:56:55;;;;;;;27;20.85;;;;;;;10.01;77.58789;93445.11;;;;
2022/04/24 05:57:55;;;;;;;27;20.85;;;;;;;10.01;77.58789;93445.11;;;;
2022/04/24 05:58:56;;;;;;;27;20.85;;;;;;;10.01;77.58789;93445.11;;;;
2022/04/24 05:59:58;;;;;;;27;20.85;;;;;;;10.01;77.58789;93445.11;;;;
2022/04/24 06:00:58;;;;;;;27;20.85;;;;;;;10.01;77.58789;93445.11;;;;
2022/04/24 06:01:58;;;;;;;27;20.85;;;;;;;10.01;77.58789;93445.11;;;;
2022/04/24 06:02:59;;;;;;;27;20.85;;;;;;;10.01;77.58789;93445.11;;;;
2022/04/24 06:04:00;;;;;;;27;20.85;;;;;;;10.01;77.58789;93445.11;;;;
2022/04/24 06:05:01;;;;;;;27;20.85;;;;;;;10.01;77.58789;93445.11;;;;
2022/04/24 06:06:02;;;;;;;27;20.85;;;;;;;10.01;77.58789;93445.11;;;;
2022/04/24 06:07:02;;;;;;;27;20.85;;;;;;;10.01;77.58789;93445.11;;;;
2022/04/24 06:08:03;;;;;;;27;20.85;;;;;;;10.01;77.58789;93445.11;;;;
2022/04/24 06:09:06;;;;;;;0;0;;;;;;;0;0;0;;;;
2022/04/24 06:10:06;;;;;;;0;0;;;;;;;0;0;0;;;;
2022/04/24 06:11:10;;;;;;;0;0;;;;;;;0;0;0;;;;
2022/04/24 06:12:10;;;;;;;0;0;;;;;;;0;0;0;;;;
2022/04/24 06:13:11;;;;;;;0;0;;;;;;;0;0;0;;;;